Time;durP1;ratioP1;P1;durP2;ratioP2;P2;SDS_P1;SDS_P2;PMS_P1;PMS_P2;Temp;Humidity;BMP_temperature;BMP_pressure;BME280_temperature;BME280_humidity;BME280_pressure;Samples;Min_cycle;Max_cycle;Signal;HPM_P1;HPM_P2
2022/07/12 00:00:53;;;;;;;2.00;1.53;;;18.10;99.90;;;;;;5048174;28;21014;-70
2022/07/12 00:03:20;;;;;;;2.50;1.60;;;18.00;99.90;;;;;;5048726;28;20258;-69
2022/07/12 00:05:47;;;;;;;1.90;1.30;;;18.00;99.90;;;;;;5048644;28;20215;-69
2022/07/12 00:08:15;;;;;;;1.60;1.50;;;17.90;99.90;;;;;;5048439;28;20204;-69
2022/07/12 00:10:42;;;;;;;2.07;1.63;;;17.90;99.90;;;;;;5048417;28;20235;-69
2022/07/12 00:13:10;;;;;;;1.83;1.63;;;17.90;99.90;;;;;;5028849;28;20663;-69
2022/07/12 00:15:37;;;;;;;1.97;1.80;;;17.90;99.90;;;;;;5028458;28;20216;-69
2022/07/12 00:18:04;;;;;;;2.77;1.60;;;17.80;99.90;;;;;;5028208;28;20213;-69
2022/07/12 00:20:31;;;;;;;2.60;1.67;;;17.80;99.90;;;;;;5028476;28;20208;-69
2022/07/12 00:22:57;;;;;;;1.60;1.50;;;17.80;99.90;;;;;;5041644;28;20686;-69
2022/07/12 00:25:26;;;;;;;2.13;1.70;;;17.80;99.90;;;;;;5028401;28;20204;-68
2022/07/12 00:27:53;;;;;;;3.63;1.57;;;17.70;99.90;;;;;;5043998;28;20628;-69
2022/07/12 00:30:20;;;;;;;3.70;1.40;;;17.70;99.90;;;;;;5047405;28;20593;-69
2022/07/12 00:32:47;;;;;;;2.50;1.70;;;17.60;99.90;;;;;;5046702;28;20192;-69
2022/07/12 00:35:14;;;;;;;3.37;1.83;;;17.60;99.90;;;;;;5048081;28;20618;-69
2022/07/12 00:37:41;;;;;;;3.70;1.80;;;17.60;99.90;;;;;;5047398;28;20721;-69
2022/07/12 00:40:10;;;;;;;2.90;1.70;;;17.60;99.90;;;;;;5048175;28;20208;-69
2022/07/12 00:42:39;;;;;;;2.40;1.53;;;17.60;99.90;;;;;;5038263;28;20216;-69
2022/07/12 00:45:08;;;;;;;1.70;1.57;;;17.60;99.90;;;;;;5028257;28;20251;-69
2022/07/12 00:47:37;;;;;;;1.90;1.40;;;17.50;99.90;;;;;;5027826;28;20671;-69
2022/07/12 00:50:07;;;;;;;2.10;1.20;;;17.50;99.90;;;;;;5031713;28;20238;-68
2022/07/12 00:52:34;;;;;;;2.70;1.37;;;17.50;99.90;;;;;;5047453;28;20196;-69
2022/07/12 00:55:00;;;;;;;1.30;1.20;;;17.40;99.90;;;;;;5027934;28;20233;-69
2022/07/12 00:57:28;;;;;;;2.60;1.70;;;17.40;99.90;;;;;;5032494;28;20204;-69
2022/07/12 00:59:56;;;;;;;2.67;1.53;;;17.40;99.90;;;;;;5047446;28;20219;-69
2022/07/12 01:02:23;;;;;;;1.30;1.20;;;17.30;99.90;;;;;;5041004;28;20201;-69
2022/07/12 01:04:52;;;;;;;2.80;1.60;;;17.30;99.90;;;;;;5027824;28;20219;-69
2022/07/12 01:07:18;;;;;;;3.07;1.80;;;17.30;99.90;;;;;;5027805;28;20207;-69
2022/07/12 01:09:45;;;;;;;3.30;1.77;;;17.20;99.90;;;;;;5027617;28;20229;-69
2022/07/12 01:12:13;;;;;;;2.83;2.03;;;17.30;99.90;;;;;;5028241;28;20267;-69
2022/07/12 01:14:40;;;;;;;3.80;1.90;;;17.20;99.90;;;;;;5027431;28;20228;-70
2022/07/12 01:17:09;;;;;;;1.87;1.77;;;17.20;99.90;;;;;;5032047;28;20228;-69
2022/07/12 01:19:38;;;;;;;3.47;1.93;;;17.10;99.90;;;;;;5031598;28;20216;-70
2022/07/12 01:22:09;;;;;;;2.27;1.77;;;17.10;99.90;;;;;;5031595;28;20262;-70
2022/07/12 01:24:37;;;;;;;3.47;1.70;;;17.00;99.90;;;;;;5035227;28;20205;-70
2022/07/12 01:27:05;;;;;;;2.03;1.50;;;17.10;99.90;;;;;;5031797;28;20470;-70
2022/07/12 01:29:32;;;;;;;2.50;1.90;;;17.00;99.90;;;;;;5037401;28;20203;-70
2022/07/12 01:32:24;;;;;;;2.20;1.57;;;17.00;99.90;;;;;;5040743;28;20239;-72
2022/07/12 01:34:50;;;;;;;1.77;1.47;;;16.90;99.90;;;;;;5050779;28;20273;-72
2022/07/12 01:37:18;;;;;;;1.50;1.40;;;16.90;99.90;;;;;;5050642;28;20718;-70
2022/07/12 01:39:47;;;;;;;2.53;1.40;;;16.90;99.90;;;;;;5051486;28;20261;-70
2022/07/12 01:42:14;;;;;;;1.53;1.20;;;16.90;99.90;;;;;;5042944;28;20690;-70
2022/07/12 01:44:42;;;;;;;1.50;1.40;;;16.80;99.90;;;;;;5030948;28;20209;-72
2022/07/12 01:47:09;;;;;;;2.13;1.67;;;16.80;99.90;;;;;;5041739;28;20204;-72
2022/07/12 01:49:36;;;;;;;2.20;1.30;;;16.80;99.90;;;;;;5050905;28;20235;-72
2022/07/12 01:52:02;;;;;;;3.53;1.60;;;16.70;99.90;;;;;;5044671;28;20211;-69
2022/07/12 01:54:29;;;;;;;1.70;1.07;;;16.70;99.90;;;;;;5042023;28;20248;-69
2022/07/12 01:56:58;;;;;;;2.60;1.40;;;16.70;99.90;;;;;;5051262;28;20216;-69
2022/07/12 01:59:24;;;;;;;6.97;1.50;;;16.70;99.90;;;;;;5051059;28;20208;-70
2022/07/12 02:01:51;;;;;;;1.43;1.33;;;16.70;99.90;;;;;;5047010;28;20205;-70
2022/07/12 02:04:19;;;;;;;1.90;1.20;;;16.70;99.90;;;;;;5031295;28;20212;-70
2022/07/12 02:06:46;;;;;;;1.30;1.20;;;16.60;99.90;;;;;;5030355;28;20212;-70
2022/07/12 02:09:13;;;;;;;1.73;1.40;;;16.60;99.90;;;;;;5031232;28;20205;-69
2022/07/12 02:11:41;;;;;;;1.90;1.57;;;16.60;99.90;;;;;;5033721;28;20248;-69
2022/07/12 02:14:09;;;;;;;1.20;1.17;;;16.60;99.90;;;;;;5050827;28;20212;-69
2022/07/12 02:16:36;;;;;;;7.57;1.50;;;16.60;99.90;;;;;;5050439;28;20204;-69
2022/07/12 02:19:03;;;;;;;1.97;1.50;;;16.50;99.90;;;;;;5050676;28;20212;-70
2022/07/12 02:21:29;;;;;;;1.40;1.30;;;16.50;99.90;;;;;;5030172;28;20212;-71
2022/07/12 02:23:56;;;;;;;2.27;1.40;;;16.50;99.90;;;;;;5041710;28;20219;-71
2022/07/12 02:26:24;;;;;;;2.10;1.30;;;16.40;99.90;;;;;;5050670;28;20245;-71
2022/07/12 02:28:50;;;;;;;1.40;1.30;;;16.40;99.90;;;;;;5050120;28;20207;-71
2022/07/12 02:31:19;;;;;;;3.20;1.30;;;16.40;99.90;;;;;;5050232;28;20251;-71
2022/07/12 02:33:45;;;;;;;3.00;1.70;;;16.40;99.90;;;;;;5050291;28;20210;-71
2022/07/12 02:36:13;;;;;;;1.97;1.33;;;16.40;99.90;;;;;;5050403;28;20235;-71
2022/07/12 02:38:40;;;;;;;2.73;1.47;;;16.30;99.90;;;;;;5030433;28;20220;-71
2022/07/12 02:41:07;;;;;;;1.67;1.57;;;16.20;99.90;;;;;;5030632;28;20200;-71
2022/07/12 02:43:35;;;;;;;1.77;1.50;;;16.10;99.90;;;;;;5047133;28;20214;-71
2022/07/12 02:46:07;;;;;;;4.30;1.50;;;16.10;99.90;;;;;;5050401;28;20231;-71
2022/07/12 02:48:36;;;;;;;1.60;1.50;;;16.10;99.90;;;;;;5049860;28;20673;-71
2022/07/12 02:51:07;;;;;;;3.33;1.57;;;16.00;99.90;;;;;;5049865;28;20246;-71
2022/07/12 02:53:35;;;;;;;2.37;1.30;;;15.90;99.90;;;;;;5041790;28;20225;-69
2022/07/12 02:56:04;;;;;;;2.40;1.57;;;15.90;99.90;;;;;;5029909;28;20216;-69
2022/07/12 02:58:30;;;;;;;2.30;1.60;;;15.90;99.90;;;;;;5029937;28;20208;-69
2022/07/12 03:00:57;;;;;;;1.70;1.50;;;16.00;99.90;;;;;;5030146;28;20304;-70
2022/07/12 03:03:24;;;;;;;1.83;1.40;;;15.90;99.90;;;;;;5029924;28;20201;-70
2022/07/12 03:05:53;;;;;;;2.53;1.40;;;15.90;99.90;;;;;;5029706;28;20303;-72
2022/07/12 03:08:19;;;;;;;2.63;1.33;;;15.90;99.90;;;;;;5030164;28;20209;-72
2022/07/12 03:10:46;;;;;;;2.00;1.50;;;15.90;99.90;;;;;;5049503;28;20227;-71
2022/07/12 03:13:13;;;;;;;2.03;1.30;;;15.80;99.90;;;;;;5035912;28;20295;-71
2022/07/12 03:15:40;;;;;;;2.03;1.40;;;15.90;99.90;;;;;;5039077;28;20215;-71
2022/07/12 03:18:07;;;;;;;3.33;1.30;;;15.80;99.90;;;;;;5043489;28;20210;-71
2022/07/12 03:20:33;;;;;;;1.47;1.37;;;15.80;99.90;;;;;;5029776;28;20219;-71
2022/07/12 03:23:01;;;;;;;1.30;1.20;;;15.70;99.90;;;;;;5027297;28;20213;-71
2022/07/12 03:25:28;;;;;;;3.17;1.40;;;15.70;99.90;;;;;;5027322;28;20201;-71
2022/07/12 03:27:55;;;;;;;2.23;1.30;;;15.80;99.90;;;;;;5026975;28;20213;-71
2022/07/12 03:30:22;;;;;;;2.43;1.50;;;15.80;99.90;;;;;;5027677;28;20566;-71
2022/07/12 03:32:49;;;;;;;1.60;1.27;;;15.80;99.90;;;;;;5027313;28;20296;-71
2022/07/12 03:35:16;;;;;;;2.80;1.30;;;15.70;99.90;;;;;;5027588;28;20264;-71
2022/07/12 03:37:44;;;;;;;2.40;1.63;;;15.70;99.90;;;;;;5039031;28;20244;-71
2022/07/12 03:40:14;;;;;;;3.20;1.33;;;15.70;99.90;;;;;;5045581;28;20212;-71
2022/07/12 03:42:42;;;;;;;1.83;1.30;;;15.80;99.90;;;;;;5046760;28;20604;-71
2022/07/12 03:45:09;;;;;;;1.47;1.37;;;15.80;99.90;;;;;;5046774;28;20208;-71
2022/07/12 03:47:37;;;;;;;2.13;1.93;;;15.80;99.90;;;;;;5046325;28;20204;-71
2022/07/12 03:50:05;;;;;;;2.27;1.07;;;15.80;99.90;;;;;;5046026;28;20215;-71
2022/07/12 03:52:32;;;;;;;1.47;1.37;;;15.80;99.90;;;;;;5046319;28;20237;-71
2022/07/12 03:54:59;;;;;;;1.87;1.37;;;15.90;99.90;;;;;;5046909;28;20239;-71
2022/07/12 03:57:27;;;;;;;4.30;1.63;;;15.80;99.90;;;;;;5044639;28;20203;-71
2022/07/12 03:59:54;;;;;;;3.00;1.30;;;15.90;99.90;;;;;;5035462;28;20207;-71
2022/07/12 04:02:21;;;;;;;1.60;1.17;;;15.90;99.90;;;;;;5047671;28;20212;-71
2022/07/12 04:04:48;;;;;;;1.63;1.30;;;15.90;99.90;;;;;;5041026;28;20681;-71
2022/07/12 04:07:15;;;;;;;2.67;1.27;;;15.90;99.90;;;;;;5032410;28;20296;-71
2022/07/12 04:09:42;;;;;;;3.67;1.40;;;15.90;99.90;;;;;;5042265;28;20204;-71
2022/07/12 04:12:09;;;;;;;1.50;1.40;;;15.90;99.90;;;;;;5037137;28;20240;-72
2022/07/12 04:14:37;;;;;;;1.60;1.50;;;15.90;99.90;;;;;;5037843;28;20581;-71
2022/07/12 04:17:05;;;;;;;1.70;1.60;;;15.90;99.90;;;;;;5032853;28;20208;-71
2022/07/12 04:19:32;;;;;;;3.70;1.73;;;15.90;99.90;;;;;;5035102;28;20262;-71
2022/07/12 04:21:59;;;;;;;1.43;1.33;;;16.00;99.90;;;;;;5035170;28;20293;-71
2022/07/12 04:24:27;;;;;;;2.63;1.57;;;16.00;99.90;;;;;;5034346;28;20211;-71
2022/07/12 04:26:54;;;;;;;5.97;1.70;;;16.00;99.90;;;;;;5032997;28;20205;-71
2022/07/12 04:29:22;;;;;;;6.53;1.60;;;16.00;99.90;;;;;;5035844;28;20232;-71
2022/07/12 04:31:50;;;;;;;2.93;2.10;;;16.00;99.90;;;;;;5035001;28;20299;-71
2022/07/12 04:34:17;;;;;;;3.57;2.00;;;16.10;99.90;;;;;;5040669;28;20208;-71
2022/07/12 04:36:44;;;;;;;7.33;1.47;;;16.10;99.90;;;;;;5037019;28;20204;-71
2022/07/12 04:39:11;;;;;;;3.73;1.40;;;16.10;99.90;;;;;;5038049;28;20208;-71
2022/07/12 04:41:38;;;;;;;3.57;1.60;;;16.10;99.90;;;;;;5033021;28;20199;-71
2022/07/12 04:44:05;;;;;;;3.83;1.50;;;16.20;99.90;;;;;;5037860;28;20208;-72
2022/07/12 04:46:32;;;;;;;2.20;1.93;;;16.20;99.90;;;;;;5033184;28;20200;-73
2022/07/12 04:49:00;;;;;;;5.50;1.77;;;16.20;99.90;;;;;;5035576;28;20212;-70
2022/07/12 04:51:27;;;;;;;1.73;1.50;;;16.20;99.90;;;;;;5038283;28;20229;-70
2022/07/12 04:53:54;;;;;;;3.63;2.00;;;16.10;99.90;;;;;;5035576;28;20228;-71
2022/07/12 04:56:21;;;;;;;1.87;1.50;;;16.10;99.90;;;;;;5039320;28;20204;-70
2022/07/12 04:58:48;;;;;;;5.03;2.10;;;16.20;99.90;;;;;;5034592;28;20200;-70
2022/07/12 05:01:15;;;;;;;4.23;1.80;;;16.30;99.90;;;;;;5037853;28;20219;-70
2022/07/12 05:03:42;;;;;;;6.67;2.30;;;16.20;99.90;;;;;;5039914;28;20271;-70
2022/07/12 05:06:10;;;;;;;4.27;1.67;;;16.10;99.90;;;;;;5037140;28;20674;-70
2022/07/12 05:08:37;;;;;;;2.10;1.77;;;16.20;99.90;;;;;;5040972;28;20208;-70
2022/07/12 05:11:07;;;;;;;2.43;1.40;;;16.20;99.90;;;;;;5036290;28;20642;-70
2022/07/12 05:13:34;;;;;;;2.03;1.40;;;16.30;99.90;;;;;;5027802;28;20205;-70
2022/07/12 05:16:00;;;;;;;4.90;1.70;;;16.40;99.90;;;;;;5045268;28;20208;-69
2022/07/12 05:18:27;;;;;;;3.83;1.60;;;16.40;99.90;;;;;;5047287;28;20232;-69
2022/07/12 05:20:54;;;;;;;2.93;1.40;;;16.40;99.90;;;;;;5047044;28;20307;-70
2022/07/12 05:23:22;;;;;;;2.13;1.40;;;16.40;99.90;;;;;;5047942;28;20208;-70
2022/07/12 05:25:49;;;;;;;3.60;1.83;;;16.30;99.90;;;;;;5047304;28;20216;-70
2022/07/12 05:28:16;;;;;;;2.10;1.57;;;16.20;99.90;;;;;;5044082;28;20208;-70
2022/07/12 05:30:43;;;;;;;3.33;1.63;;;16.10;99.90;;;;;;5046676;28;20236;-70
2022/07/12 05:33:12;;;;;;;1.77;1.50;;;16.10;99.90;;;;;;5047190;28;20674;-70
2022/07/12 05:35:39;;;;;;;2.37;1.40;;;16.10;99.90;;;;;;5047060;28;20311;-70
2022/07/12 05:38:05;;;;;;;2.93;1.40;;;16.20;99.90;;;;;;5043305;28;20209;-70
2022/07/12 05:40:33;;;;;;;4.77;2.30;;;16.30;99.90;;;;;;5037364;28;20682;-70
2022/07/12 05:43:00;;;;;;;4.50;1.40;;;16.30;99.90;;;;;;5047529;28;20208;-70
2022/07/12 05:45:27;;;;;;;1.57;1.47;;;16.30;99.90;;;;;;5043372;28;20197;-70
2022/07/12 05:47:54;;;;;;;4.90;1.60;;;16.30;99.90;;;;;;5027208;28;20912;-70
2022/07/12 05:50:21;;;;;;;1.73;1.30;;;16.40;99.90;;;;;;5039291;28;20216;-70
2022/07/12 05:55:33;;;;;;;2.00;1.33;;;16.50;99.90;;;;;;5033342;28;20282;-71
2022/07/12 05:58:00;;;;;;;2.70;1.00;;;16.60;99.90;;;;;;5035970;28;20214;-71
2022/07/12 06:00:27;;;;;;;1.93;1.67;;;16.70;99.90;;;;;;5037898;28;20204;-71
2022/07/12 06:02:53;;;;;;;2.40;1.67;;;16.70;99.90;;;;;;5038998;28;20211;-71
2022/07/12 06:05:20;;;;;;;2.67;1.60;;;16.70;99.90;;;;;;5038507;28;20212;-71
2022/07/12 06:07:47;;;;;;;1.90;1.47;;;16.80;99.90;;;;;;5037401;28;20283;-71
2022/07/12 06:10:14;;;;;;;1.50;1.37;;;16.80;99.90;;;;;;5042778;28;20204;-71
2022/07/12 06:12:42;;;;;;;3.30;1.30;;;16.90;99.90;;;;;;5038664;28;20224;-71
2022/07/12 06:15:10;;;;;;;1.80;1.20;;;16.90;99.90;;;;;;5037742;28;20213;-71
2022/07/12 06:17:36;;;;;;;2.23;1.20;;;17.00;99.90;;;;;;5042417;28;20215;-71
2022/07/12 06:20:04;;;;;;;2.20;1.30;;;17.00;99.90;;;;;;5041987;28;20235;-71
2022/07/12 06:22:31;;;;;;;1.83;1.40;;;17.10;99.90;;;;;;5040858;28;20209;-71
2022/07/12 06:24:57;;;;;;;1.63;1.17;;;17.10;99.90;;;;;;5035233;28;20635;-71
2022/07/12 06:27:24;;;;;;;1.70;1.27;;;17.20;99.90;;;;;;5038380;28;20216;-71
2022/07/12 06:29:53;;;;;;;3.43;1.00;;;17.20;99.90;;;;;;5040305;28;20201;-71
2022/07/12 06:32:20;;;;;;;2.40;1.33;;;17.30;99.90;;;;;;5034399;28;20236;-71
2022/07/12 06:34:46;;;;;;;1.40;1.00;;;17.30;99.90;;;;;;5032007;28;20564;-71
2022/07/12 06:37:14;;;;;;;1.60;1.00;;;17.40;99.90;;;;;;5034573;28;20216;-71
2022/07/12 06:39:41;;;;;;;4.87;1.50;;;17.40;99.90;;;;;;5037135;28;20663;-71
2022/07/12 06:42:08;;;;;;;3.53;1.40;;;17.50;99.90;;;;;;5035088;28;20208;-71
2022/07/12 06:44:35;;;;;;;1.67;1.00;;;17.50;99.90;;;;;;5044090;28;20219;-71
2022/07/12 06:47:04;;;;;;;2.23;1.10;;;17.60;99.90;;;;;;5041205;28;20253;-71
2022/07/12 06:49:31;;;;;;;2.37;1.37;;;17.60;99.90;;;;;;5042986;28;20211;-71
2022/07/12 06:51:58;;;;;;;2.97;1.20;;;17.60;99.90;;;;;;5040984;28;20228;-71
2022/07/12 06:54:24;;;;;;;3.10;1.30;;;17.70;99.90;;;;;;5041999;28;20691;-71
2022/07/12 06:56:51;;;;;;;2.20;1.30;;;17.80;99.90;;;;;;5042863;28;20901;-71
2022/07/12 06:59:18;;;;;;;1.60;1.03;;;17.80;99.90;;;;;;5041710;28;20618;-71
2022/07/12 07:01:45;;;;;;;3.47;1.37;;;17.90;99.90;;;;;;5030120;28;20204;-71
2022/07/12 07:04:13;;;;;;;1.30;1.20;;;17.90;99.90;;;;;;5030316;28;20208;-71
2022/07/12 07:06:40;;;;;;;2.53;1.53;;;18.00;99.90;;;;;;5040104;28;20196;-71
2022/07/12 07:09:07;;;;;;;2.23;1.17;;;18.00;99.90;;;;;;5045031;28;20315;-71
2022/07/12 07:11:35;;;;;;;2.23;1.30;;;18.10;99.90;;;;;;5029126;28;20221;-71
2022/07/12 07:14:02;;;;;;;1.00;1.00;;;18.20;99.90;;;;;;5028668;28;20216;-71
2022/07/12 07:16:28;;;;;;;1.90;1.20;;;18.30;99.90;;;;;;5041261;28;20200;-71
2022/07/12 07:18:55;;;;;;;1.07;1.07;;;18.40;99.90;;;;;;5048423;28;20204;-71
2022/07/12 07:21:23;;;;;;;1.53;0.90;;;18.40;99.90;;;;;;5048125;28;20211;-71
2022/07/12 07:23:50;;;;;;;2.03;1.03;;;18.50;99.90;;;;;;5042410;28;20661;-71
2022/07/12 07:26:17;;;;;;;0.73;0.73;;;18.60;99.90;;;;;;5049373;28;20250;-71
2022/07/12 07:31:29;;;;;;;1.37;1.27;;;18.70;99.90;;;;;;5047930;28;20646;-71
2022/07/12 07:33:55;;;;;;;2.37;1.10;;;18.70;99.90;;;;;;5049425;28;20215;-71
2022/07/12 07:36:23;;;;;;;1.20;1.07;;;18.80;99.90;;;;;;5036976;28;20205;-71
2022/07/12 07:38:50;;;;;;;1.93;1.00;;;18.80;99.90;;;;;;5048412;28;20222;-71
2022/07/12 07:41:17;;;;;;;1.30;1.10;;;19.00;99.90;;;;;;5048632;28;20223;-71
2022/07/12 07:43:44;;;;;;;1.60;1.47;;;19.00;99.90;;;;;;5040207;28;20220;-71
2022/07/12 07:46:11;;;;;;;4.17;1.50;;;19.10;99.90;;;;;;5039258;28;20686;-71
2022/07/12 07:48:37;;;;;;;2.17;1.03;;;19.20;99.90;;;;;;5028409;28;20249;-71
2022/07/12 07:51:07;;;;;;;0.87;0.87;;;19.30;99.90;;;;;;5047633;28;20659;-71
2022/07/12 07:53:35;;;;;;;2.13;1.07;;;19.40;99.90;;;;;;5048622;28;20244;-71
2022/07/12 07:56:05;;;;;;;1.63;0.90;;;19.40;99.90;;;;;;5046501;28;20566;-71
2022/07/12 07:58:32;;;;;;;0.93;0.87;;;19.50;99.90;;;;;;5036348;28;20308;-71
2022/07/12 08:00:58;;;;;;;1.00;1.00;;;19.50;99.90;;;;;;5040308;28;20824;-71
2022/07/12 08:03:25;;;;;;;2.40;1.10;;;19.60;99.90;;;;;;5029491;28;20311;-71
2022/07/12 08:05:52;;;;;;;2.43;1.23;;;19.70;99.90;;;;;;5041370;28;20418;-71
2022/07/12 08:08:19;;;;;;;1.00;0.90;;;19.80;99.90;;;;;;5048576;28;20215;-71
2022/07/12 08:10:49;;;;;;;1.73;0.70;;;19.70;99.90;;;;;;5048298;28;20212;-71
2022/07/12 08:13:16;;;;;;;3.33;1.50;;;19.70;99.90;;;;;;5048390;28;20310;-70
2022/07/12 08:15:43;;;;;;;3.13;1.10;;;19.70;99.90;;;;;;5047012;28;20204;-70
2022/07/12 08:18:09;;;;;;;2.03;0.80;;;19.70;99.90;;;;;;5048256;28;20208;-70
2022/07/12 08:20:36;;;;;;;1.33;0.80;;;19.70;99.90;;;;;;5047684;28;20210;-70
2022/07/12 08:23:03;;;;;;;2.33;1.10;;;19.90;99.90;;;;;;5047862;28;20218;-70
2022/07/12 08:25:30;;;;;;;1.00;0.80;;;20.00;99.90;;;;;;5046997;28;20216;-70
2022/07/12 08:27:58;;;;;;;1.27;0.70;;;20.00;99.90;;;;;;5046223;28;20222;-70
2022/07/12 08:30:25;;;;;;;1.70;1.13;;;20.10;99.90;;;;;;5046052;28;20201;-70
2022/07/12 08:32:52;;;;;;;7.07;1.70;;;20.30;99.90;;;;;;5047286;28;20219;-70
2022/07/12 08:35:19;;;;;;;1.03;0.90;;;20.40;99.90;;;;;;5047371;28;20212;-71
2022/07/12 08:37:46;;;;;;;1.17;1.00;;;20.40;99.90;;;;;;5035136;28;20291;-70
2022/07/12 08:40:13;;;;;;;2.57;0.87;;;20.40;99.90;;;;;;5032483;28;20205;-70
2022/07/12 08:42:42;;;;;;;2.77;0.80;;;20.50;99.90;;;;;;5035531;28;20207;-70
2022/07/12 08:45:11;;;;;;;1.93;0.80;;;20.50;99.90;;;;;;5041305;28;20215;-71
2022/07/12 08:47:38;;;;;;;1.77;0.93;;;20.60;99.90;;;;;;5047280;28;20216;-71
2022/07/12 08:50:12;;;;;;;9.43;1.30;;;20.60;99.90;;;;;;5043005;28;20210;-70
2022/07/12 08:52:41;;;;;;;1.80;0.90;;;20.60;99.90;;;;;;5033833;28;20277;-70
2022/07/12 08:55:19;;;;;;;1.37;0.70;;;20.50;99.90;;;;;;5036381;28;20267;-70
2022/07/12 08:57:47;;;;;;;1.60;0.90;;;20.50;99.90;;;;;;5027524;28;20205;-71
2022/07/12 09:00:15;;;;;;;2.67;0.97;;;20.50;99.90;;;;;;5045954;28;20214;-71
2022/07/12 09:02:47;;;;;;;2.03;0.87;;;20.70;99.90;;;;;;5046133;28;20218;-71
2022/07/12 09:05:15;;;;;;;3.40;1.30;;;20.80;99.90;;;;;;5036466;28;20526;-70
2022/07/12 09:07:42;;;;;;;7.87;1.30;;;20.80;99.90;;;;;;5034809;28;20200;-70
2022/07/12 09:10:11;;;;;;;1.30;1.00;;;20.80;99.90;;;;;;5037732;28;20994;-70
2022/07/12 09:12:38;;;;;;;2.87;0.80;;;20.80;99.90;;;;;;5034550;28;20227;-70
2022/07/12 09:15:17;;;;;;;2.20;0.90;;;20.80;99.90;;;;;;5034057;28;20209;-71
2022/07/12 09:17:58;;;;;;;5.17;0.90;;;20.80;99.90;;;;;;5035874;28;20196;-70
2022/07/12 09:20:29;;;;;;;2.60;0.90;;;20.90;99.90;;;;;;5035651;28;20222;-71
2022/07/12 09:22:58;;;;;;;4.50;0.90;;;21.00;99.90;;;;;;5035770;28;20568;-70
2022/07/12 09:25:25;;;;;;;0.90;0.90;;;21.10;99.90;;;;;;5035772;28;20209;-71
2022/07/12 09:27:54;;;;;;;1.60;0.90;;;21.20;99.90;;;;;;5034202;28;20204;-71
2022/07/12 09:30:23;;;;;;;1.33;1.07;;;21.30;99.90;;;;;;5033757;28;20201;-71
2022/07/12 09:38:26;;;;;;;1.23;0.80;;;21.50;96.90;;;;;;5038755;28;20267;-71
2022/07/12 09:40:54;;;;;;;21.47;2.27;;;21.50;97.90;;;;;;5043150;28;20207;-71
2022/07/12 09:43:22;;;;;;;1.07;0.70;;;21.60;98.30;;;;;;5040949;28;20220;-71
2022/07/12 09:45:51;;;;;;;2.03;0.82;;;21.60;96.70;;;;;;5037898;28;20680;-71
2022/07/12 09:48:19;;;;;;;1.15;0.80;;;21.70;97.20;;;;;;5031495;28;20197;-71
2022/07/12 09:50:48;;;;;;;5.10;0.70;;;21.80;97.60;;;;;;5035693;28;20228;-71
2022/07/12 09:53:23;;;;;;;1.23;0.60;;;21.90;98.60;;;;;;5037525;28;20243;-71
2022/07/12 09:55:52;;;;;;;0.97;0.83;;;21.90;97.80;;;;;;5038168;28;20257;-71
2022/07/12 09:58:26;;;;;;;4.20;1.20;;;22.00;98.50;;;;;;5038841;28;20204;-70
2022/07/12 10:00:56;;;;;;;1.67;1.00;;;22.10;99.10;;;;;;5040943;28;20224;-70
2022/07/12 10:03:24;;;;;;;3.28;0.93;;;22.30;98.70;;;;;;5043516;28;20201;-70
2022/07/12 10:05:53;;;;;;;1.37;0.90;;;22.40;98.00;;;;;;5037823;28;20208;-70
2022/07/12 10:08:21;;;;;;;5.93;1.05;;;22.50;98.00;;;;;;5040249;28;20209;-70
2022/07/12 10:10:49;;;;;;;2.13;0.97;;;22.60;97.00;;;;;;5038901;28;20205;-70
2022/07/12 10:13:16;;;;;;;0.70;0.70;;;22.60;97.10;;;;;;5040718;28;20232;-69
2022/07/12 10:15:44;;;;;;;1.20;1.00;;;22.60;97.50;;;;;;5039969;28;20208;-70
2022/07/12 10:18:19;;;;;;;0.90;0.77;;;22.70;97.60;;;;;;5036734;28;20247;-69
2022/07/12 10:20:46;;;;;;;1.85;0.90;;;22.70;98.60;;;;;;5035464;28;20816;-70
2022/07/12 10:23:37;;;;;;;1.80;0.70;;;22.80;97.70;;;;;;5037053;28;20207;-70
2022/07/12 10:26:41;;;;;;;2.43;1.10;;;22.80;96.60;;;;;;5038354;28;20207;-70
2022/07/12 10:29:09;;;;;;;1.85;1.17;;;22.90;97.40;;;;;;5042140;28;20574;-70
2022/07/12 10:31:39;;;;;;;0.77;0.77;;;22.90;96.50;;;;;;5037482;28;20232;-70
2022/07/12 10:34:20;;;;;;;1.15;0.80;;;22.90;96.00;;;;;;5040773;28;20244;-70
2022/07/12 10:37:13;;;;;;;2.75;1.02;;;22.90;96.40;;;;;;5032767;28;20197;-70
2022/07/12 10:39:40;;;;;;;0.70;0.70;;;23.00;97.00;;;;;;5031345;28;20204;-70
2022/07/12 10:42:15;;;;;;;1.05;0.80;;;23.00;96.50;;;;;;5037747;28;20689;-70
2022/07/12 10:44:44;;;;;;;2.83;0.98;;;23.20;96.90;;;;;;5037218;28;20199;-70
2022/07/12 10:47:14;;;;;;;0.70;0.70;;;23.40;97.10;;;;;;5036046;28;20750;-70
2022/07/12 10:49:48;;;;;;;2.80;0.90;;;23.50;96.00;;;;;;5036906;28;20253;-70
2022/07/12 10:52:25;;;;;;;2.63;0.88;;;23.50;95.80;;;;;;5039859;28;20192;-70
2022/07/12 10:55:19;;;;;;;1.27;0.65;;;23.50;95.40;;;;;;5037090;28;20208;-70
2022/07/12 10:57:52;;;;;;;1.38;1.02;;;23.70;95.30;;;;;;5028756;28;20204;-70
2022/07/12 11:00:19;;;;;;;7.43;0.98;;;23.90;95.80;;;;;;5037286;28;20647;-70
2022/07/12 11:02:46;;;;;;;7.10;1.00;;;24.00;95.80;;;;;;5038873;28;20209;-70
2022/07/12 11:05:14;;;;;;;1.85;0.70;;;24.10;96.00;;;;;;5036778;28;20204;-70
2022/07/12 11:07:41;;;;;;;0.85;0.70;;;24.10;95.20;;;;;;5035149;28;20197;-70
2022/07/12 11:10:12;;;;;;;15.73;1.92;;;24.00;95.20;;;;;;5037317;28;21461;-70
2022/07/12 11:12:38;;;;;;;1.30;0.40;;;24.00;95.00;;;;;;5036042;28;20647;-70
2022/07/12 11:15:06;;;;;;;1.38;0.47;;;24.10;95.00;;;;;;5036239;28;20204;-70
2022/07/12 11:17:34;;;;;;;1.25;0.88;;;24.10;95.00;;;;;;5038399;28;20204;-70
2022/07/12 11:20:09;;;;;;;2.97;0.70;;;24.10;95.00;;;;;;5036460;28;20211;-71
2022/07/12 11:22:38;;;;;;;3.53;0.73;;;24.20;95.70;;;;;;5036696;28;20200;-70
2022/07/12 11:25:08;;;;;;;1.63;0.57;;;24.30;95.50;;;;;;5039902;28;20684;-70
2022/07/12 11:27:35;;;;;;;1.25;0.75;;;24.50;94.70;;;;;;5042101;28;20210;-70
2022/07/12 11:30:02;;;;;;;1.80;1.02;;;24.70;93.30;;;;;;5040672;28;20204;-70
2022/07/12 11:32:37;;;;;;;0.82;0.68;;;24.90;93.40;;;;;;5037225;28;20236;-70
2022/07/12 11:35:05;;;;;;;1.38;0.60;;;24.90;93.20;;;;;;5039742;28;20223;-70
2022/07/12 11:37:32;;;;;;;0.82;0.82;;;25.00;92.70;;;;;;5044770;28;20283;-70
2022/07/12 11:40:01;;;;;;;2.08;1.98;;;25.10;92.70;;;;;;5031615;28;20212;-70
2022/07/12 11:42:28;;;;;;;1.98;1.10;;;25.30;92.60;;;;;;5043438;28;20573;-70
2022/07/12 11:44:55;;;;;;;2.13;0.68;;;25.40;92.50;;;;;;5037250;28;20576;-70
2022/07/12 11:47:23;;;;;;;0.82;0.80;;;25.30;92.60;;;;;;5029577;28;20205;-71
2022/07/12 11:49:52;;;;;;;8.52;1.58;;;25.00;92.30;;;;;;5036459;28;20204;-70
2022/07/12 11:52:20;;;;;;;1.15;0.70;;;24.90;92.80;;;;;;5030044;28;20228;-70
2022/07/12 11:54:49;;;;;;;2.78;0.80;;;24.80;92.40;;;;;;5036934;28;20232;-70
2022/07/12 11:57:20;;;;;;;0.60;0.60;;;24.90;92.20;;;;;;5041793;28;20518;-70
2022/07/12 11:59:47;;;;;;;2.47;1.10;;;25.20;92.50;;;;;;5030429;28;20204;-70
2022/07/12 12:02:16;;;;;;;2.38;0.60;;;25.40;93.00;;;;;;5030382;28;20212;-70
2022/07/12 12:04:47;;;;;;;2.80;0.85;;;25.40;92.90;;;;;;5033147;28;20664;-70
2022/07/12 12:07:16;;;;;;;1.90;0.73;;;25.30;92.70;;;;;;5042676;28;20207;-70
2022/07/12 12:10:04;;;;;;;2.90;0.68;;;25.40;93.00;;;;;;5039163;28;20200;-70
2022/07/12 12:12:39;;;;;;;1.27;0.68;;;25.60;92.50;;;;;;5040688;28;20659;-70
2022/07/12 12:15:07;;;;;;;2.08;0.82;;;25.90;93.00;;;;;;5040789;28;20216;-71
2022/07/12 12:17:35;;;;;;;2.33;0.88;;;26.10;92.40;;;;;;5039510;28;20227;-70
2022/07/12 12:20:11;;;;;;;1.83;0.85;;;26.20;92.30;;;;;;5033223;28;20227;-70
2022/07/12 12:22:38;;;;;;;1.25;0.80;;;26.20;91.80;;;;;;5038045;28;20214;-69
2022/07/12 12:25:12;;;;;;;1.30;0.70;;;25.90;92.40;;;;;;5032049;28;20211;-70
2022/07/12 12:27:44;;;;;;;0.98;0.90;;;26.10;92.50;;;;;;5036001;28;20197;-70
2022/07/12 12:30:11;;;;;;;3.92;0.85;;;26.10;92.00;;;;;;5036234;28;20199;-70
2022/07/12 12:32:49;;;;;;;3.30;1.00;;;26.00;92.40;;;;;;5038298;28;20235;-70
2022/07/12 12:35:18;;;;;;;6.05;0.80;;;25.90;92.50;;;;;;5037982;28;20227;-70
2022/07/12 12:37:56;;;;;;;3.10;0.70;;;26.10;92.90;;;;;;5037569;28;20551;-70
2022/07/12 12:40:24;;;;;;;1.75;0.70;;;26.40;92.00;;;;;;5036869;28;20234;-70
2022/07/12 12:42:53;;;;;;;1.98;0.70;;;26.50;91.40;;;;;;5037832;28;20201;-71
2022/07/12 12:45:21;;;;;;;3.22;1.10;;;26.80;91.70;;;;;;5036394;28;20672;-70
2022/07/12 12:47:55;;;;;;;1.10;0.90;;;27.00;91.30;;;;;;5036570;28;20571;-70
2022/07/12 12:50:53;;;;;;;1.90;0.77;;;27.00;91.30;;;;;;5035306;28;20566;-71
2022/07/12 12:53:22;;;;;;;1.00;0.90;;;27.20;91.90;;;;;;4976784;28;20237;-70
2022/07/12 12:55:52;;;;;;;2.35;1.25;;;27.40;91.90;;;;;;5021538;28;20254;-71
2022/07/12 12:58:21;;;;;;;1.02;0.80;;;27.70;92.40;;;;;;5037303;28;20212;-71
2022/07/12 13:00:50;;;;;;;0.70;0.70;;;27.80;90.80;;;;;;5035511;28;20201;-71
2022/07/12 13:03:18;;;;;;;1.85;1.10;;;27.90;90.50;;;;;;5033603;28;20274;-70
2022/07/12 13:05:46;;;;;;;1.13;0.90;;;28.10;91.00;;;;;;5028972;28;20208;-71